Arapahoe, North Carolina
Current Conditions -  °F | °C
As of 3:54 AM on Saturday 01 Nov 2014 (Local Time) from KNKT Reporting Station
Clear Clear  
Wind Chill: 48°   Ceiling: Unl
Heat Index: 48°   Visibility: 10mi
Dew Point: 43°   Wind: 0mph
Humidity: 83%   Direction: NA
Pressure: 29.72"   Gusts: NA
Location:  35.03°N, 76.83°W
Report Text: KNKT 010754Z 00000KT 10SM CLR 09/06 A2972 RMK SLP059 T00890061
Loading
Personal Weather Stations






























Interactive Weather Map
Tropical Storm Tracking
New forecast layout! Learn more

10-Day Weather Forecast

Advertisements
Track Severe Weather on mobile